createdAt,value
2022-07-28T00:01:59.939Z,1.20
2022-07-28T00:04:26.757Z,1.27
2022-07-28T00:06:53.466Z,1.42
2022-07-28T00:09:20.773Z,1.20
2022-07-28T00:11:54.689Z,1.42
2022-07-28T00:14:24.236Z,1.45
2022-07-28T00:16:50.942Z,1.67
2022-07-28T00:19:17.757Z,1.70
2022-07-28T00:21:44.472Z,1.58
2022-07-28T00:24:11.589Z,1.83
2022-07-28T00:26:38.440Z,1.33
2022-07-28T00:29:05.668Z,1.23
2022-07-28T00:31:32.429Z,1.48
2022-07-28T00:33:59.406Z,1.52
2022-07-28T00:36:26.057Z,1.50
2022-07-28T00:38:53.369Z,1.45
2022-07-28T00:41:20.239Z,1.38
2022-07-28T00:43:48.161Z,1.60
2022-07-28T00:46:16.065Z,1.42
2022-07-28T00:48:50.726Z,1.50
2022-07-28T00:51:18.173Z,1.42
2022-07-28T00:53:45.186Z,1.60
2022-07-28T00:56:11.931Z,1.40
2022-07-28T00:58:38.569Z,1.65
2022-07-28T01:01:06.125Z,1.48
2022-07-28T01:03:34.574Z,1.52
2022-07-28T01:06:05.112Z,1.50
2022-07-28T01:08:41.318Z,1.85
2022-07-28T01:11:23.119Z,1.55
2022-07-28T01:13:59.907Z,1.80
2022-07-28T01:16:26.588Z,1.50
2022-07-28T01:19:04.969Z,1.60
2022-07-28T01:21:34.156Z,1.23
2022-07-28T01:24:26.415Z,1.48
2022-07-28T01:27:20.941Z,1.30
2022-07-28T01:30:08.593Z,1.20
2022-07-28T01:32:43.236Z,1.70
2022-07-28T01:35:21.002Z,1.57
2022-07-28T01:37:49.703Z,1.75
2022-07-28T01:40:17.790Z,1.60
2022-07-28T01:42:49.973Z,1.73
2022-07-28T01:45:16.719Z,1.80
2022-07-28T01:47:43.966Z,1.63
2022-07-28T01:50:10.607Z,1.70
2022-07-28T01:52:37.578Z,1.65
2022-07-28T01:55:04.606Z,1.58
2022-07-28T01:57:31.314Z,1.50
2022-07-28T01:59:58.007Z,1.50
2022-07-28T02:02:26.047Z,1.75
2022-07-28T02:04:52.810Z,1.70
2022-07-28T02:07:19.489Z,1.80
2022-07-28T02:09:46.123Z,1.55
2022-07-28T02:12:14.053Z,1.70
2022-07-28T02:14:40.743Z,1.42
2022-07-28T02:17:10.837Z,1.70
2022-07-28T02:19:37.639Z,1.70
2022-07-28T02:22:04.390Z,1.35
2022-07-28T02:24:31.113Z,1.48
2022-07-28T02:26:59.201Z,1.55
2022-07-28T02:29:49.596Z,1.48
2022-07-28T02:32:27.511Z,1.63
2022-07-28T02:34:58.467Z,1.63
2022-07-28T02:37:25.376Z,1.63
2022-07-28T02:39:58.295Z,1.33
2022-07-28T02:42:28.442Z,1.60
2022-07-28T02:44:59.375Z,1.70
2022-07-28T02:47:28.976Z,1.52
2022-07-28T02:49:56.235Z,1.45
2022-07-28T02:52:23.210Z,1.80
2022-07-28T02:54:52.800Z,1.70
2022-07-28T02:57:19.432Z,1.52
2022-07-28T02:59:46.113Z,1.70
2022-07-28T03:02:12.720Z,1.65
2022-07-28T03:04:39.583Z,1.75
2022-07-28T03:07:06.573Z,1.58
2022-07-28T03:09:45.126Z,1.60
2022-07-28T03:12:11.995Z,1.80
2022-07-28T03:14:38.767Z,1.70
2022-07-28T03:17:05.695Z,1.60
2022-07-28T03:19:32.409Z,1.60
2022-07-28T03:21:59.106Z,1.52
2022-07-28T03:24:27.982Z,1.63
2022-07-28T03:27:18.357Z,1.88
2022-07-28T03:29:46.384Z,1.98
2022-07-28T03:32:13.065Z,2.00
2022-07-28T03:34:39.631Z,1.75
2022-07-28T03:37:10.468Z,1.90
2022-07-28T03:39:39.224Z,1.70
2022-07-28T03:42:05.819Z,1.88
2022-07-28T03:44:32.512Z,1.63
2022-07-28T03:46:59.141Z,1.80
2022-07-28T03:49:25.714Z,1.90
2022-07-28T03:51:52.346Z,1.90
2022-07-28T03:54:18.960Z,1.95
2022-07-28T03:56:45.575Z,2.00
2022-07-28T03:59:12.192Z,1.70
2022-07-28T04:01:39.099Z,1.88
2022-07-28T04:04:05.804Z,1.80
2022-07-28T04:06:32.399Z,1.80
2022-07-28T04:08:59.365Z,1.60
2022-07-28T04:11:26.062Z,1.60
2022-07-28T04:13:52.794Z,2.10
2022-07-28T04:16:19.801Z,1.60
2022-07-28T04:18:49.024Z,1.80
2022-07-28T04:21:15.633Z,2.00
2022-07-28T04:23:42.547Z,2.00
2022-07-28T04:26:09.233Z,1.83
2022-07-28T04:28:36.038Z,1.90
2022-07-28T04:31:02.729Z,1.77
2022-07-28T04:33:29.586Z,1.95
2022-07-28T04:35:56.344Z,1.90
2022-07-28T04:38:23.092Z,2.00
2022-07-28T04:40:49.876Z,2.03
2022-07-28T04:43:16.485Z,2.10
2022-07-28T04:45:53.302Z,1.98
2022-07-28T04:48:21.422Z,1.85
2022-07-28T04:50:48.233Z,1.67
2022-07-28T04:53:14.970Z,2.20
2022-07-28T04:55:41.651Z,1.95
2022-07-28T04:58:09.441Z,1.98
2022-07-28T05:00:36.281Z,1.80
2022-07-28T05:03:03.038Z,1.98
2022-07-28T05:05:31.976Z,2.05
2022-07-28T05:07:58.692Z,1.88
2022-07-28T05:10:25.742Z,1.88
2022-07-28T05:12:52.641Z,2.00
2022-07-28T05:15:19.373Z,1.80
2022-07-28T05:17:46.068Z,2.10
2022-07-28T05:20:12.770Z,2.40
2022-07-28T05:22:46.937Z,2.22
2022-07-28T05:25:20.256Z,2.15
2022-07-28T05:27:47.167Z,2.20
2022-07-28T05:30:14.268Z,2.47
2022-07-28T05:32:41.090Z,2.45
2022-07-28T05:35:08.097Z,2.33
2022-07-28T05:37:35.448Z,2.75
2022-07-28T05:40:03.382Z,2.75
2022-07-28T05:42:30.075Z,2.50
2022-07-28T05:44:56.715Z,2.50
2022-07-28T05:47:23.649Z,2.60
2022-07-28T05:49:50.447Z,2.63
2022-07-28T05:52:17.135Z,2.30
2022-07-28T05:54:43.858Z,2.05
2022-07-28T05:57:10.662Z,2.67
2022-07-28T05:59:42.150Z,2.40
2022-07-28T06:02:11.725Z,2.40
2022-07-28T06:04:38.385Z,2.50
2022-07-28T06:07:05.090Z,3.25
2022-07-28T06:09:32.039Z,3.10
2022-07-28T06:11:58.675Z,3.25
2022-07-28T06:14:25.345Z,3.40
2022-07-28T06:16:52.702Z,3.42
2022-07-28T06:19:19.593Z,3.25
2022-07-28T06:21:46.357Z,3.35
2022-07-28T06:24:13.772Z,3.53
2022-07-28T06:26:44.639Z,3.25
2022-07-28T06:29:12.267Z,3.33
2022-07-28T06:31:39.489Z,2.95
2022-07-28T06:34:06.482Z,3.42
2022-07-28T06:36:33.221Z,3.50
2022-07-28T06:38:59.956Z,3.80
2022-07-28T06:41:26.685Z,4.85
2022-07-28T06:43:53.611Z,3.97
2022-07-28T06:46:20.628Z,3.92
2022-07-28T06:48:47.403Z,3.38
2022-07-28T06:51:14.156Z,3.85
2022-07-28T06:53:40.852Z,5.05
2022-07-28T06:56:07.591Z,4.88
2022-07-28T06:58:40.486Z,4.40
2022-07-28T07:01:07.457Z,4.60
2022-07-28T07:03:34.534Z,4.32
2022-07-28T07:06:01.278Z,3.92
2022-07-28T07:08:28.022Z,3.72
2022-07-28T07:10:55.379Z,3.30
2022-07-28T07:13:22.089Z,3.28
2022-07-28T07:15:48.791Z,3.50
2022-07-28T07:18:15.448Z,2.97
2022-07-28T07:20:42.263Z,3.25
2022-07-28T07:23:09.335Z,2.78
2022-07-28T07:25:36.012Z,2.72
2022-07-28T07:28:02.654Z,3.08
2022-07-28T07:30:29.397Z,3.00
2022-07-28T07:32:56.116Z,2.88
2022-07-28T07:35:23.163Z,2.90
2022-07-28T07:37:49.805Z,2.80
2022-07-28T07:40:16.496Z,2.88
2022-07-28T07:42:43.218Z,2.75
2022-07-28T07:45:09.965Z,2.53
2022-07-28T07:47:36.686Z,2.25
2022-07-28T07:50:04.554Z,2.20
2022-07-28T07:52:31.543Z,2.33
2022-07-28T07:54:58.321Z,1.88
2022-07-28T07:57:24.925Z,2.05
2022-07-28T07:59:51.571Z,1.88
2022-07-28T08:02:18.266Z,2.35
2022-07-28T08:04:44.950Z,2.10
2022-07-28T08:07:14.515Z,2.10
2022-07-28T08:09:41.267Z,1.60
2022-07-28T08:12:08.320Z,1.75
2022-07-28T08:14:35.004Z,1.90
2022-07-28T08:17:01.657Z,1.75
2022-07-28T08:19:28.285Z,1.88
2022-07-28T08:21:55.025Z,1.33
2022-07-28T08:24:32.647Z,1.67
2022-07-28T08:27:03.278Z,1.85
2022-07-28T08:29:30.216Z,1.60
2022-07-28T08:31:57.227Z,1.42
2022-07-28T08:34:31.419Z,1.60
2022-07-28T08:37:00.961Z,1.55
2022-07-28T08:39:27.749Z,1.70
2022-07-28T08:41:55.737Z,1.50
2022-07-28T08:44:28.411Z,1.85
2022-07-28T08:46:55.142Z,1.38
2022-07-28T08:49:22.222Z,2.10
2022-07-28T08:51:48.903Z,1.67
2022-07-28T08:54:22.410Z,1.45
2022-07-28T08:56:49.053Z,1.58
2022-07-28T08:59:15.797Z,1.90
2022-07-28T09:01:42.681Z,1.83
2022-07-28T09:04:09.384Z,1.95
2022-07-28T09:06:36.107Z,1.80
2022-07-28T09:09:02.942Z,2.13
2022-07-28T09:11:31.018Z,1.80
2022-07-28T09:13:57.718Z,1.73
2022-07-28T09:16:25.643Z,1.85
2022-07-28T09:18:52.389Z,1.55
2022-07-28T09:21:19.205Z,1.40
2022-07-28T09:23:46.960Z,1.52
2022-07-28T09:26:13.635Z,1.50
2022-07-28T09:28:50.528Z,1.70
2022-07-28T09:31:17.602Z,1.70
2022-07-28T09:33:54.771Z,1.25
2022-07-28T09:36:22.309Z,1.55
2022-07-28T09:38:49.020Z,1.60
2022-07-28T09:41:15.687Z,1.80
2022-07-28T09:43:43.361Z,1.83
2022-07-28T09:46:17.938Z,1.73
2022-07-28T09:48:51.007Z,1.55
2022-07-28T09:51:19.273Z,1.67
2022-07-28T09:53:46.141Z,1.80
2022-07-28T09:56:12.924Z,1.80
2022-07-28T09:58:39.872Z,2.00
2022-07-28T10:01:07.716Z,1.52
2022-07-28T10:03:36.078Z,1.98
2022-07-28T10:06:03.290Z,1.75
2022-07-28T10:08:44.281Z,2.17
2022-07-28T10:11:11.421Z,1.55
2022-07-28T10:14:00.736Z,1.50
2022-07-28T10:16:29.402Z,1.60
2022-07-28T10:18:56.972Z,1.60
2022-07-28T10:21:25.231Z,2.17
2022-07-28T10:23:53.809Z,1.80
2022-07-28T10:26:22.460Z,1.90
2022-07-28T10:28:50.741Z,1.60
2022-07-28T10:31:29.315Z,1.90
2022-07-28T10:33:56.167Z,1.70
2022-07-28T10:36:23.787Z,1.80
2022-07-28T10:38:50.459Z,1.50
2022-07-28T10:41:17.073Z,1.88
2022-07-28T10:43:45.514Z,1.70
2022-07-28T10:46:16.068Z,1.50
2022-07-28T10:48:43.697Z,2.00
2022-07-28T10:51:10.520Z,1.92
2022-07-28T10:53:57.061Z,1.65
2022-07-28T10:56:34.049Z,1.67
2022-07-28T10:59:07.453Z,1.58
2022-07-28T11:01:49.805Z,1.35
2022-07-28T11:04:44.980Z,1.50
2022-07-28T11:07:12.516Z,1.67
2022-07-28T11:09:39.212Z,1.70
2022-07-28T11:12:06.365Z,1.60
2022-07-28T11:14:38.092Z,1.48
2022-07-28T11:17:10.894Z,1.33
2022-07-28T11:20:07.261Z,1.42
2022-07-28T11:22:32.124Z,1.40
2022-07-28T11:24:59.527Z,1.23
2022-07-28T11:27:41.085Z,1.35
2022-07-28T11:30:11.700Z,2.05
2022-07-28T11:32:50.062Z,1.27
2022-07-28T11:35:20.053Z,1.30
2022-07-28T11:38:01.883Z,1.42
2022-07-28T11:40:48.478Z,1.30
2022-07-28T11:43:22.462Z,1.05
2022-07-28T11:46:13.500Z,1.17
2022-07-28T11:48:43.790Z,1.38
2022-07-28T11:51:11.332Z,1.10
2022-07-28T11:54:04.726Z,1.30
2022-07-28T11:56:32.301Z,1.20
2022-07-28T11:59:02.460Z,1.00
2022-07-28T12:01:31.867Z,1.20
2022-07-28T12:03:59.536Z,1.05
2022-07-28T12:06:36.481Z,1.30
2022-07-28T12:09:07.435Z,1.20
2022-07-28T12:11:35.259Z,1.20
2022-07-28T12:14:06.426Z,0.90
2022-07-28T12:16:34.525Z,1.25
2022-07-28T12:19:04.554Z,1.08
2022-07-28T12:21:47.527Z,1.10
2022-07-28T12:24:21.446Z,1.05
2022-07-28T12:26:49.919Z,1.00
2022-07-28T12:29:17.373Z,1.10
2022-07-28T12:31:57.078Z,0.80
2022-07-28T12:34:26.738Z,0.90
2022-07-28T12:36:59.335Z,1.27
2022-07-28T12:39:26.269Z,1.30
2022-07-28T12:42:00.586Z,1.10
2022-07-28T12:44:37.502Z,1.15
2022-07-28T12:47:05.023Z,1.20
2022-07-28T12:49:31.989Z,1.20
2022-07-28T12:51:59.186Z,1.02
2022-07-28T12:54:37.917Z,0.93
2022-07-28T12:57:05.509Z,1.10
2022-07-28T12:59:36.085Z,1.05
2022-07-28T13:02:02.917Z,1.13
2022-07-28T13:04:45.453Z,1.00
2022-07-28T13:07:22.029Z,1.08
2022-07-28T13:10:00.889Z,1.02
2022-07-28T13:12:27.842Z,1.10
2022-07-28T13:14:57.032Z,0.80
2022-07-28T13:17:28.972Z,1.20
2022-07-28T13:20:06.058Z,0.85
2022-07-28T13:22:32.669Z,0.90
2022-07-28T13:24:59.314Z,0.90
2022-07-28T13:27:26.270Z,1.08
2022-07-28T13:29:53.025Z,1.25
2022-07-28T13:32:19.918Z,1.23
2022-07-28T13:34:46.657Z,1.20
2022-07-28T13:37:13.352Z,1.27
2022-07-28T13:39:40.295Z,1.20
2022-07-28T13:42:07.121Z,0.93
2022-07-28T13:44:37.370Z,1.08
2022-07-28T13:47:05.837Z,1.20
2022-07-28T13:49:33.956Z,1.10
2022-07-28T13:52:01.811Z,1.27
2022-07-28T13:54:28.961Z,0.98
2022-07-28T13:56:55.567Z,1.20
2022-07-28T13:59:22.982Z,1.00
2022-07-28T14:01:53.124Z,1.00
2022-07-28T14:04:21.703Z,1.13
2022-07-28T14:06:48.695Z,1.10
2022-07-28T14:09:17.955Z,1.20
2022-07-28T14:11:50.098Z,1.10
2022-07-28T14:14:24.046Z,1.10
2022-07-28T14:16:54.509Z,1.20
2022-07-28T14:19:23.618Z,1.10
2022-07-28T14:22:12.899Z,0.98
2022-07-28T14:24:41.431Z,1.10
2022-07-28T14:27:08.133Z,1.30
2022-07-28T14:29:37.920Z,1.20
2022-07-28T14:32:06.086Z,1.23
2022-07-28T14:34:32.736Z,1.40
2022-07-28T14:37:01.678Z,1.23
2022-07-28T14:39:32.667Z,1.02
2022-07-28T14:41:59.362Z,1.00
2022-07-28T14:44:26.188Z,0.80
2022-07-28T14:46:53.092Z,1.30
2022-07-28T14:49:20.235Z,1.33
2022-07-28T14:51:46.922Z,1.20
2022-07-28T14:54:13.828Z,1.27
2022-07-28T14:56:40.739Z,1.00
2022-07-28T14:59:07.442Z,1.13
2022-07-28T15:01:36.091Z,1.13
2022-07-28T15:04:03.512Z,1.10
2022-07-28T15:06:30.348Z,1.30
2022-07-28T15:08:57.504Z,1.05
2022-07-28T15:11:24.477Z,1.02
2022-07-28T15:13:51.159Z,0.85
2022-07-28T15:16:17.873Z,1.00
2022-07-28T15:18:44.641Z,1.15
2022-07-28T15:21:17.445Z,1.10
2022-07-28T15:23:44.451Z,1.10
2022-07-28T15:26:11.177Z,1.10
2022-07-28T15:28:38.117Z,1.30
2022-07-28T15:31:06.687Z,1.00
2022-07-28T15:33:36.150Z,1.00
2022-07-28T15:36:02.902Z,1.25
2022-07-28T15:38:31.448Z,1.00
2022-07-28T15:40:58.712Z,1.08
2022-07-28T15:43:25.728Z,1.17
2022-07-28T15:45:53.428Z,1.10
2022-07-28T15:48:22.653Z,1.17
2022-07-28T15:50:49.402Z,1.10
2022-07-28T15:53:16.492Z,1.20
2022-07-28T15:55:47.528Z,1.15
2022-07-28T15:58:17.328Z,0.98
2022-07-28T16:00:44.700Z,1.02
2022-07-28T16:03:11.701Z,1.13
2022-07-28T16:05:38.538Z,1.02
2022-07-28T16:08:05.437Z,1.15
2022-07-28T16:10:32.283Z,1.00
2022-07-28T16:12:59.070Z,1.10
2022-07-28T16:15:25.811Z,1.17
2022-07-28T16:17:55.702Z,1.10
2022-07-28T16:20:22.688Z,1.08
2022-07-28T16:22:49.333Z,1.23
2022-07-28T16:25:16.310Z,0.98
2022-07-28T16:27:43.906Z,1.13
2022-07-28T16:30:10.920Z,1.10
2022-07-28T16:32:38.091Z,0.80
2022-07-28T16:35:05.454Z,1.10
2022-07-28T16:37:32.208Z,1.48
2022-07-28T16:39:58.944Z,1.20
2022-07-28T16:42:25.630Z,1.35
2022-07-28T16:44:52.478Z,1.10
2022-07-28T16:47:19.240Z,1.15
2022-07-28T16:49:46.458Z,1.10
2022-07-28T16:52:14.470Z,1.13
2022-07-28T16:54:41.351Z,1.20
2022-07-28T16:57:07.949Z,1.05
2022-07-28T16:59:38.002Z,1.20
2022-07-28T17:02:14.684Z,0.90
2022-07-28T17:04:41.372Z,0.90
2022-07-28T17:07:08.003Z,1.00
2022-07-28T17:09:34.742Z,1.20
2022-07-28T17:12:01.433Z,1.13
2022-07-28T17:14:28.591Z,1.40
2022-07-28T17:16:55.275Z,1.00
2022-07-28T17:19:21.957Z,1.05
2022-07-28T17:21:48.630Z,1.35
2022-07-28T17:24:15.720Z,1.13
2022-07-28T17:27:35.104Z,1.02
2022-07-28T17:29:30.284Z,1.10
2022-07-28T17:31:56.942Z,1.20
2022-07-28T17:34:23.576Z,1.10
2022-07-28T17:36:50.251Z,1.15
2022-07-28T17:39:16.922Z,1.23
2022-07-28T17:41:44.217Z,1.17
2022-07-28T17:44:10.840Z,1.30
2022-07-28T17:46:37.545Z,1.20
2022-07-28T17:49:05.309Z,1.00
2022-07-28T17:51:31.990Z,1.25
2022-07-28T17:53:58.619Z,1.15
2022-07-28T17:56:25.947Z,1.20
2022-07-28T17:58:52.869Z,1.08
2022-07-28T18:01:19.670Z,1.05
2022-07-28T18:03:56.672Z,1.25
2022-07-28T18:06:30.909Z,1.10
2022-07-28T18:09:03.728Z,1.00
2022-07-28T18:11:56.835Z,1.20
2022-07-28T18:14:25.385Z,1.27
2022-07-28T18:16:52.014Z,1.23
2022-07-28T18:19:19.072Z,1.20
2022-07-28T18:21:45.686Z,1.20
2022-07-28T18:24:12.565Z,1.40
2022-07-28T18:26:39.468Z,1.38
2022-07-28T18:29:06.174Z,1.23
2022-07-28T18:31:32.936Z,1.23
2022-07-28T18:33:59.878Z,1.10
2022-07-28T18:36:26.561Z,1.27
2022-07-28T18:38:53.208Z,1.10
2022-07-28T18:41:19.892Z,1.33
2022-07-28T18:43:46.599Z,1.52
2022-07-28T18:46:13.897Z,1.23
2022-07-28T18:48:40.753Z,1.17
2022-07-28T18:51:07.385Z,1.58
2022-07-28T18:53:34.189Z,1.50
2022-07-28T18:56:00.888Z,1.40
2022-07-28T18:58:27.509Z,1.10
2022-07-28T19:00:54.201Z,1.50
2022-07-28T19:03:21.113Z,1.45
2022-07-28T19:05:48.047Z,1.05
2022-07-28T19:08:14.864Z,1.25
2022-07-28T19:10:44.805Z,1.23
2022-07-28T19:13:13.140Z,1.15
2022-07-28T19:15:40.721Z,1.33
2022-07-28T19:18:10.839Z,1.55
2022-07-28T19:20:41.655Z,1.40
2022-07-28T19:23:08.515Z,1.25
2022-07-28T19:25:35.192Z,1.38
2022-07-28T19:28:01.893Z,1.35
2022-07-28T19:30:29.586Z,1.30
2022-07-28T19:32:57.826Z,1.33
2022-07-28T19:35:24.526Z,1.33
2022-07-28T19:37:51.134Z,1.27
2022-07-28T19:40:17.987Z,1.27
2022-07-28T19:42:44.995Z,1.23
2022-07-28T19:45:11.726Z,1.42
2022-07-28T19:47:38.362Z,1.50
2022-07-28T19:50:05.375Z,1.30
2022-07-28T19:52:32.025Z,1.30
2022-07-28T19:54:58.688Z,1.27
2022-07-28T19:57:26.836Z,1.20
2022-07-28T19:59:53.503Z,1.20
2022-07-28T20:02:20.163Z,1.45
2022-07-28T20:04:46.836Z,1.20
2022-07-28T20:07:14.050Z,1.20
2022-07-28T20:09:40.725Z,1.30
2022-07-28T20:12:07.763Z,1.33
2022-07-28T20:14:35.228Z,1.42
2022-07-28T20:17:01.964Z,1.52
2022-07-28T20:19:28.611Z,1.38
2022-07-28T20:21:55.309Z,1.52
2022-07-28T20:24:21.986Z,1.75
2022-07-28T20:26:48.641Z,1.45
2022-07-28T20:29:15.358Z,1.40
2022-07-28T20:31:42.025Z,1.50
2022-07-28T20:34:08.665Z,1.60
2022-07-28T20:36:35.316Z,1.40
2022-07-28T20:39:07.847Z,1.38
2022-07-28T20:41:42.619Z,1.30
2022-07-28T20:44:28.158Z,1.50
2022-07-28T20:46:56.790Z,1.25
2022-07-28T20:49:23.419Z,1.67
2022-07-28T20:51:50.910Z,1.40
2022-07-28T20:54:18.455Z,1.52
2022-07-28T20:56:45.279Z,1.42
2022-07-28T20:59:11.916Z,1.50
2022-07-28T21:01:38.620Z,1.40
2022-07-28T21:04:05.581Z,1.25
2022-07-28T21:06:32.507Z,1.50
2022-07-28T21:08:59.129Z,1.38
2022-07-28T21:11:27.195Z,1.48
2022-07-28T21:13:54.098Z,1.27
2022-07-28T21:16:20.807Z,1.55
2022-07-28T21:18:47.566Z,1.75
2022-07-28T21:21:14.230Z,1.48
2022-07-28T21:23:40.859Z,1.50
2022-07-28T21:26:08.653Z,1.60
2022-07-28T21:28:35.386Z,1.58
2022-07-28T21:31:02.197Z,1.52
2022-07-28T21:33:28.914Z,1.50
2022-07-28T21:35:55.576Z,1.50
2022-07-28T21:38:22.208Z,1.50
2022-07-28T21:40:48.880Z,1.60
2022-07-28T21:43:15.619Z,1.45
2022-07-28T21:45:42.371Z,1.42
2022-07-28T21:48:09.103Z,1.80
2022-07-28T21:50:38.464Z,1.70
2022-07-28T21:53:05.130Z,1.60
2022-07-28T21:55:32.132Z,1.73
2022-07-28T21:57:58.818Z,1.38
2022-07-28T22:00:25.549Z,1.40
2022-07-28T22:02:52.202Z,1.38
2022-07-28T22:05:18.980Z,1.50
2022-07-28T22:07:45.684Z,1.40
2022-07-28T22:10:12.273Z,1.80
2022-07-28T22:12:39.471Z,1.80
2022-07-28T22:15:06.652Z,1.80
2022-07-28T22:17:33.622Z,1.65
2022-07-28T22:20:00.291Z,1.60
2022-07-28T22:22:26.906Z,1.55
2022-07-28T22:24:53.882Z,1.33
2022-07-28T22:27:20.480Z,1.58
2022-07-28T22:29:51.661Z,1.60
2022-07-28T22:32:18.961Z,1.35
2022-07-28T22:34:55.484Z,1.90
2022-07-28T22:37:22.104Z,1.88
2022-07-28T22:39:48.781Z,1.75
2022-07-28T22:42:15.528Z,1.70
2022-07-28T22:44:42.272Z,1.55
2022-07-28T22:47:08.982Z,1.50
2022-07-28T22:49:35.709Z,1.60
2022-07-28T22:52:02.369Z,1.70
2022-07-28T22:54:29.025Z,1.70
2022-07-28T22:56:55.709Z,1.70
2022-07-28T22:59:23.030Z,1.60
2022-07-28T23:01:51.693Z,1.60
2022-07-28T23:04:18.612Z,1.60
2022-07-28T23:06:45.447Z,1.38
2022-07-28T23:09:12.144Z,1.50
2022-07-28T23:11:39.071Z,1.50
2022-07-28T23:14:05.906Z,1.70
2022-07-28T23:16:32.640Z,1.70
2022-07-28T23:18:59.298Z,1.50
2022-07-28T23:21:26.053Z,1.48
2022-07-28T23:23:52.745Z,1.60
2022-07-28T23:26:19.386Z,1.50
2022-07-28T23:28:46.005Z,1.55
2022-07-28T23:31:12.773Z,1.60
2022-07-28T23:33:55.215Z,1.63
2022-07-28T23:36:27.409Z,1.67
2022-07-28T23:38:58.106Z,1.52
2022-07-28T23:41:28.010Z,1.73
2022-07-28T23:43:54.680Z,1.50
2022-07-28T23:46:21.532Z,1.58
2022-07-28T23:48:48.901Z,1.67
2022-07-28T23:51:15.937Z,1.60
2022-07-28T23:53:42.549Z,1.33
2022-07-28T23:56:09.294Z,1.60
2022-07-28T23:58:35.937Z,1.50
